Time;durP1;ratioP1;P1;durP2;ratioP2;P2;SDS_P1;SDS_P2;PMS_P1;PMS_P2;Temp;Humidity;BMP_temperature;BMP_pressure;BME280_temperature;BME280_humidity;BME280_pressure;Samples;Min_cycle;Max_cycle;Signal;HPM_P1;HPM_P2
2022/08/24 00:01:26;;;;;;;6.28;4.28;;;19.80;99.90;;;-144.05;63.42;125687.94;5003060;28;20060;-89
2022/08/24 00:03:56;;;;;;;6.38;4.60;;;19.80;99.90;;;-144.05;63.58;125687.94;5003875;28;20034;-88
2022/08/24 00:06:24;;;;;;;8.05;4.82;;;19.80;99.90;;;-144.05;63.55;125687.94;5001387;28;20049;-88
2022/08/24 00:08:55;;;;;;;7.65;4.50;;;19.80;99.90;;;-144.05;63.82;125687.94;5019354;28;20029;-89
2022/08/24 00:11:23;;;;;;;5.95;4.63;;;19.70;99.90;;;-144.05;64.61;125687.94;5003529;28;20029;-89
2022/08/24 00:13:51;;;;;;;7.68;4.00;;;19.60;99.90;;;-144.05;64.99;125687.94;5005001;28;20027;-88
2022/08/24 00:16:17;;;;;;;7.38;4.65;;;19.50;99.90;;;-144.05;65.30;125687.94;5018848;28;20034;-90
2022/08/24 00:18:45;;;;;;;7.15;4.40;;;19.50;99.90;;;-144.05;65.53;125687.94;5002127;28;20030;-87
2022/08/24 00:21:13;;;;;;;6.22;4.03;;;19.40;99.90;;;-144.05;65.55;125687.94;5002849;28;20056;-89
2022/08/24 00:23:39;;;;;;;9.85;4.43;;;19.40;99.90;;;-144.05;65.59;125687.94;5002296;28;20068;-89
2022/08/24 00:26:07;;;;;;;7.35;3.97;;;19.30;99.90;;;-144.05;65.85;125687.94;5002241;28;20030;-88
2022/08/24 00:28:34;;;;;;;7.85;4.70;;;19.20;99.90;;;-144.05;66.21;125687.94;5020287;28;20093;-88
2022/08/24 00:31:00;;;;;;;6.53;4.00;;;19.20;99.90;;;-144.05;66.51;125687.94;5002935;28;20291;-89
2022/08/24 00:33:27;;;;;;;5.40;3.67;;;19.10;99.90;;;-144.05;66.86;125687.94;5002336;28;20033;-87
2022/08/24 00:35:53;;;;;;;5.32;3.97;;;19.00;99.90;;;-144.05;66.99;125687.94;5002596;28;20140;-87
2022/08/24 00:38:19;;;;;;;6.63;4.53;;;19.00;99.90;;;-144.05;67.22;125687.94;5004747;28;20083;-87
2022/08/24 00:40:48;;;;;;;5.88;4.30;;;18.90;99.90;;;-144.05;67.32;125687.94;5001437;28;20504;-88
2022/08/24 00:43:24;;;;;;;7.53;4.28;;;18.90;99.90;;;-144.05;67.56;125687.94;5002513;28;20125;-89
2022/08/24 00:45:52;;;;;;;;;;;18.90;99.90;;;-144.05;67.41;125687.94;5018896;28;20026;-86
2022/08/24 00:48:29;;;;;;;8.80;4.50;;;18.90;99.90;;;-144.05;67.04;125687.94;5019190;28;19909;-88
2022/08/24 00:51:05;;;;;;;9.02;4.53;;;19.00;99.90;;;-144.05;66.61;125687.94;5002611;28;20121;-86
2022/08/24 00:53:47;;;;;;;6.85;4.32;;;19.00;99.90;;;-144.05;66.43;125687.94;5018882;28;20024;-88
2022/08/24 00:56:55;;;;;;;5.88;4.20;;;19.00;99.90;;;-144.05;66.12;125687.94;5022771;28;20026;-87
2022/08/24 00:59:28;;;;;;;;;;;19.00;99.90;;;-144.05;65.89;125687.94;5007038;28;20418;-88
2022/08/24 01:01:58;;;;;;;8.43;4.38;;;19.10;99.90;;;-144.05;65.90;125687.94;5006886;28;19952;-89
2022/08/24 01:04:37;;;;;;;8.90;4.32;;;19.10;99.90;;;-144.05;66.11;125687.94;5006291;28;20505;-89
2022/08/24 01:07:04;;;;;;;6.57;4.03;;;19.00;99.90;;;-144.05;66.81;125687.94;5006816;28;20034;-89
2022/08/24 01:09:29;;;;;;;6.65;4.28;;;18.90;99.90;;;-144.05;66.94;125687.94;5007456;28;20049;-90
2022/08/24 01:11:55;;;;;;;9.90;4.70;;;18.90;99.90;;;-144.05;67.41;125687.94;5007657;28;20041;-85
2022/08/24 01:14:23;;;;;;;8.50;4.70;;;18.80;99.90;;;-144.05;67.66;125687.94;5024848;28;20088;-86
2022/08/24 01:19:49;;;;;;;5.88;4.55;;;18.60;99.90;;;-144.05;68.31;125687.94;5024185;28;20127;-87
2022/08/24 01:23:12;;;;;;;6.47;4.50;;;18.60;99.90;;;-144.05;69.14;125687.94;5023944;28;20033;-86
2022/08/24 01:25:43;;;;;;;8.57;4.57;;;18.50;99.90;;;-144.05;69.18;125687.94;5008428;28;20505;-87
2022/08/24 01:28:19;;;;;;;5.65;4.70;;;18.40;99.90;;;-144.05;69.29;125687.94;5026746;28;20145;-85
2022/08/24 01:30:45;;;;;;;6.40;4.63;;;18.40;99.90;;;-144.05;69.21;125687.94;5022882;28;20034;-87
2022/08/24 01:33:30;;;;;;;7.82;5.25;;;18.40;99.90;;;-144.05;69.47;125687.94;5006274;28;20516;-86
2022/08/24 01:36:13;;;;;;;8.40;5.13;;;18.40;99.90;;;-144.05;69.43;125687.94;5023497;28;20080;-87
2022/08/24 01:38:41;;;;;;;8.98;4.70;;;18.50;99.90;;;-144.05;69.51;125687.94;5007747;28;20080;-90
2022/08/24 01:41:07;;;;;;;11.30;4.93;;;18.50;99.90;;;-144.05;69.14;125687.94;5008378;28;20045;-88
2022/08/24 01:43:33;;;;;;;8.93;5.38;;;18.50;99.90;;;-144.05;69.67;125687.94;5008397;28;20030;-87
2022/08/24 01:45:59;;;;;;;8.15;5.20;;;18.50;99.90;;;-144.05;69.18;125687.94;5008634;28;20033;-90
2022/08/24 01:48:25;;;;;;;10.52;5.75;;;18.50;99.90;;;-144.05;69.62;125687.94;5008185;28;20030;-89
2022/08/24 01:50:52;;;;;;;6.95;5.30;;;18.40;99.90;;;-144.05;69.75;125687.94;5012664;28;20117;-89
2022/08/24 01:53:19;;;;;;;11.07;5.32;;;18.50;99.90;;;-144.05;69.52;125687.94;5006219;28;20030;-87
2022/08/24 01:55:45;;;;;;;7.78;5.47;;;18.40;99.90;;;-144.05;69.16;125687.94;5002846;28;20030;-87
2022/08/24 01:58:12;;;;;;;9.43;5.28;;;18.40;99.90;;;-144.05;69.45;125687.94;5003087;28;20034;-88
2022/08/24 02:00:39;;;;;;;9.50;5.07;;;18.40;99.90;;;-144.05;69.44;125687.94;5003040;28;20464;-88
2022/08/24 02:03:05;;;;;;;10.10;5.10;;;18.40;99.90;;;-144.05;69.41;125687.94;5003743;28;20441;-86
2022/08/24 02:05:32;;;;;;;6.22;4.63;;;18.40;99.90;;;-144.05;69.60;125687.94;5003377;28;20064;-88
2022/08/24 02:07:58;;;;;;;5.43;4.88;;;18.30;99.90;;;-144.05;69.54;125687.94;5017919;28;20069;-89
2022/08/24 02:10:26;;;;;;;7.88;5.53;;;18.30;99.90;;;-144.05;69.63;125687.94;5004479;28;20030;-90
2022/08/24 02:12:58;;;;;;;6.00;4.50;;;18.30;99.90;;;-144.05;69.79;125687.94;5002785;28;20041;-88
2022/08/24 02:15:38;;;;;;;7.95;4.82;;;18.30;99.90;;;-144.05;69.84;125687.94;5002712;28;20033;-89
2022/08/24 02:18:08;;;;;;;6.45;4.78;;;18.20;99.90;;;-144.05;70.17;125687.94;5002286;28;20096;-88
2022/08/24 02:20:36;;;;;;;4.95;4.03;;;18.10;99.90;;;-144.05;70.69;125687.94;5002961;28;20037;-89
2022/08/24 02:23:05;;;;;;;5.63;4.72;;;18.00;99.90;;;-144.05;70.91;125687.94;5002720;28;20033;-89
2022/08/24 02:25:32;;;;;;;10.07;4.80;;;17.90;99.90;;;-144.05;71.33;125687.94;5002503;28;20025;-86
2022/08/24 02:28:00;;;;;;;10.10;5.20;;;17.90;99.90;;;-144.05;71.79;125687.94;5002264;28;20122;-88
2022/08/24 02:30:30;;;;;;;7.93;5.10;;;17.80;99.90;;;-144.05;71.84;125687.94;5003698;28;20116;-89
2022/08/24 02:32:58;;;;;;;11.27;5.35;;;17.80;99.90;;;-144.05;72.26;125687.94;5018344;28;20433;-87
2022/08/24 02:35:27;;;;;;;11.77;5.97;;;17.80;99.90;;;-144.05;72.54;125687.94;5001836;28;20351;-89
2022/08/24 02:37:53;;;;;;;9.75;5.07;;;17.80;99.90;;;-144.05;72.34;125687.94;5018551;28;20026;-89
2022/08/24 02:40:20;;;;;;;9.15;4.85;;;17.90;99.90;;;-144.05;72.30;125687.94;5002195;28;20032;-88
2022/08/24 02:42:46;;;;;;;7.22;5.15;;;17.80;99.90;;;-144.05;72.31;125687.94;5002185;28;20381;-89
2022/08/24 02:45:13;;;;;;;7.95;5.07;;;17.80;99.90;;;-144.05;72.44;125687.94;5001580;28;20026;-88
2022/08/24 02:47:39;;;;;;;6.30;5.10;;;17.80;99.90;;;-144.05;72.27;125687.94;5001759;28;20080;-87
2022/08/24 02:50:11;;;;;;;7.22;5.15;;;17.80;99.90;;;-144.05;72.34;125687.94;5001979;28;20057;-89
2022/08/24 02:52:39;;;;;;;7.65;5.00;;;17.80;99.90;;;-144.05;72.54;125687.94;5002540;28;20022;-89
2022/08/24 02:55:15;;;;;;;8.50;5.35;;;17.80;99.90;;;-144.05;72.71;125687.94;5001740;28;20022;-89
2022/08/24 02:57:41;;;;;;;9.40;5.00;;;17.80;99.90;;;-144.05;72.81;125687.94;5002047;28;20508;-88
2022/08/24 03:00:15;;;;;;;8.32;5.38;;;17.80;99.90;;;-144.05;72.70;125687.94;5001049;28;20042;-88
2022/08/24 03:02:41;;;;;;;9.02;5.07;;;17.70;99.90;;;-144.05;72.71;125687.94;5001213;28;20021;-87
2022/08/24 03:05:09;;;;;;;9.35;4.97;;;17.70;99.90;;;-144.05;72.90;125687.94;5001149;28;20097;-88
2022/08/24 03:07:35;;;;;;;9.25;5.57;;;17.60;99.90;;;-144.05;73.10;125687.94;5001669;28;20521;-86
2022/08/24 03:10:02;;;;;;;8.20;5.30;;;17.60;99.90;;;-144.05;73.53;125687.94;5001308;28;20062;-88
2022/08/24 03:12:28;;;;;;;8.55;5.28;;;17.60;99.90;;;-144.05;73.49;125687.94;5001965;28;20049;-88
2022/08/24 03:14:54;;;;;;;9.13;5.20;;;17.60;99.90;;;-144.05;73.70;125687.94;5001098;28;20113;-87
2022/08/24 03:17:22;;;;;;;7.95;5.30;;;17.50;99.90;;;-144.05;74.09;125687.94;5001581;28;20041;-89
2022/08/24 03:19:49;;;;;;;8.25;5.47;;;17.50;99.90;;;-144.05;74.42;125687.94;5000705;28;20389;-85
2022/08/24 03:22:16;;;;;;;7.47;5.28;;;17.40;99.90;;;-144.05;74.44;125687.94;5001948;28;20030;-86
2022/08/24 03:24:41;;;;;;;6.38;5.18;;;17.50;99.90;;;-144.05;74.44;125687.94;5001913;28;20025;-87
2022/08/24 03:27:07;;;;;;;9.88;5.38;;;17.40;99.90;;;-144.05;74.71;125687.94;5001939;28;20049;-89
2022/08/24 03:29:34;;;;;;;9.07;5.13;;;17.30;99.90;;;-144.05;74.91;125687.94;5004491;28;20025;-88
2022/08/24 03:32:00;;;;;;;6.38;5.15;;;17.30;99.90;;;-144.05;74.98;125687.94;5010052;28;20038;-89
2022/08/24 03:34:26;;;;;;;8.48;5.35;;;17.30;99.90;;;-144.05;75.08;125687.94;5005885;28;20045;-89
2022/08/24 03:36:53;;;;;;;8.43;5.63;;;17.20;99.90;;;-144.05;75.38;125687.94;5001786;28;20025;-86
2022/08/24 03:39:19;;;;;;;8.35;5.97;;;17.20;99.90;;;-144.05;75.61;125687.94;5002447;28;20394;-86
2022/08/24 03:41:45;;;;;;;10.82;5.60;;;17.20;99.90;;;-144.05;75.74;125687.94;5002074;28;20034;-89
2022/08/24 03:44:11;;;;;;;6.53;4.93;;;17.20;99.90;;;-144.05;75.77;125687.94;5003998;28;20396;-88
2022/08/24 03:46:37;;;;;;;6.35;4.85;;;17.10;99.90;;;-144.05;75.84;125687.94;5003808;28;20029;-88
2022/08/24 03:49:08;;;;;;;7.72;5.00;;;17.10;99.90;;;-144.05;76.00;125687.94;5004398;28;20026;-89
2022/08/24 03:51:38;;;;;;;6.85;5.30;;;17.10;99.90;;;-144.05;76.34;125687.94;5003996;28;20125;-89
2022/08/24 03:54:09;;;;;;;10.23;6.05;;;17.10;99.90;;;-144.05;76.47;125687.94;5020667;28;20092;-89
2022/08/24 03:56:36;;;;;;;8.48;5.57;;;17.10;99.90;;;-144.05;76.61;125687.94;5005040;28;20025;-88
2022/08/24 03:59:03;;;;;;;11.90;5.88;;;17.10;99.90;;;-144.05;76.62;125687.94;5005110;28;20029;-89
2022/08/24 04:01:30;;;;;;;7.43;5.65;;;17.10;99.90;;;-144.05;76.36;125687.94;5006598;28;20030;-88
2022/08/24 04:03:56;;;;;;;7.82;5.90;;;17.10;99.90;;;-144.05;76.50;125687.94;5001618;28;20061;-89
2022/08/24 04:06:23;;;;;;;8.27;6.28;;;17.10;99.90;;;-144.05;76.42;125687.94;5001111;28;20032;-89
2022/08/24 04:08:51;;;;;;;7.25;5.63;;;17.10;99.90;;;-144.05;76.17;125687.94;5000645;28;20049;-88
2022/08/24 04:11:25;;;;;;;11.05;6.88;;;17.10;99.90;;;-144.05;76.05;125687.94;5001306;28;20026;-88
2022/08/24 04:13:57;;;;;;;9.35;6.30;;;17.20;99.90;;;-144.05;76.27;125687.94;5004045;28;20034;-90
2022/08/24 04:16:26;;;;;;;21.23;6.65;;;17.20;99.90;;;-144.05;76.34;125687.94;5001634;28;20025;-89
2022/08/24 04:18:52;;;;;;;18.58;7.00;;;17.10;99.90;;;-144.05;76.42;125687.94;5001061;28;20046;-89
2022/08/24 04:21:29;;;;;;;14.73;6.53;;;17.10;99.90;;;-144.05;76.47;125687.94;5018815;28;20021;-87
2022/08/24 04:23:57;;;;;;;11.15;5.97;;;17.00;99.90;;;-144.05;76.86;125687.94;5001928;28;20112;-86
2022/08/24 04:26:28;;;;;;;17.95;6.00;;;17.00;99.90;;;-144.05;77.10;125687.94;4997846;28;20034;-89
2022/08/24 04:28:56;;;;;;;10.82;5.78;;;16.90;99.90;;;-144.05;77.41;125687.94;4999710;28;20038;-89
2022/08/24 04:31:23;;;;;;;7.90;5.13;;;16.80;99.90;;;-144.05;77.36;125687.94;4998353;28;20026;-87
2022/08/24 04:33:51;;;;;;;13.10;6.45;;;16.80;99.90;;;-144.05;77.46;125687.94;5000281;28;20461;-88
2022/08/24 04:36:21;;;;;;;10.80;6.55;;;16.70;99.90;;;-144.05;77.65;125687.94;4999728;28;20099;-89
2022/08/24 04:38:49;;;;;;;12.20;6.50;;;16.80;99.90;;;-144.05;77.56;125687.94;4999960;28;20033;-88
2022/08/24 04:41:20;;;;;;;8.55;5.93;;;16.80;99.90;;;-144.05;77.86;125687.94;5001493;28;20034;-88
2022/08/24 04:43:49;;;;;;;12.15;6.05;;;16.80;99.90;;;-144.05;77.70;125687.94;5001398;28;20474;-89
2022/08/24 04:46:19;;;;;;;10.98;5.95;;;16.70;99.90;;;-144.05;77.78;125687.94;5016984;28;20049;-89
2022/08/24 04:48:48;;;;;;;7.18;4.85;;;16.70;99.90;;;-144.05;77.96;125687.94;5000586;28;20029;-89
2022/08/24 04:51:18;;;;;;;7.50;5.72;;;16.70;99.90;;;-144.05;77.87;125687.94;5003123;28;20041;-89
2022/08/24 04:53:46;;;;;;;9.60;5.82;;;16.70;99.90;;;-144.05;78.13;125687.94;5014962;28;20033;-87
2022/08/24 04:56:20;;;;;;;8.27;5.80;;;16.70;99.90;;;-144.05;77.93;125687.94;5035362;28;20018;-87
2022/08/24 04:58:46;;;;;;;8.13;5.40;;;16.70;99.90;;;-144.05;78.10;125687.94;5017905;28;20066;-86
2022/08/24 05:01:18;;;;;;;7.93;6.10;;;16.70;99.90;;;-144.05;78.20;125687.94;5034533;28;20057;-89
2022/08/24 05:03:49;;;;;;;8.27;5.72;;;16.70;99.90;;;-144.05;78.03;125687.94;5016862;28;20030;-90
2022/08/24 05:06:18;;;;;;;8.45;5.40;;;16.70;99.90;;;-144.05;78.08;125687.94;5033185;28;20029;-86
2022/08/24 05:08:46;;;;;;;9.13;5.22;;;16.70;99.90;;;-144.05;77.96;125687.94;5033276;28;20057;-87
2022/08/24 05:11:16;;;;;;;8.32;5.68;;;16.80;99.90;;;-144.05;77.89;125687.94;5014094;28;20100;-90
2022/08/24 05:13:43;;;;;;;8.90;5.63;;;16.80;99.90;;;-144.05;77.68;125687.94;5015886;28;20052;-90
2022/08/24 05:16:15;;;;;;;9.38;5.85;;;16.80;99.90;;;-144.05;77.51;125687.94;5014707;28;20025;-88
2022/08/24 05:18:43;;;;;;;9.10;6.00;;;16.90;99.90;;;-144.05;77.09;125687.94;5026967;28;20045;-91
2022/08/24 05:21:16;;;;;;;10.13;5.63;;;17.00;99.90;;;-144.05;76.94;125687.94;5012778;28;20037;-89
2022/08/24 05:23:43;;;;;;;9.60;6.13;;;17.10;99.90;;;-144.05;76.50;125687.94;5006454;28;20084;-88
2022/08/24 05:26:25;;;;;;;11.90;6.28;;;17.20;99.90;;;-144.05;76.71;125687.94;5019499;28;20029;-88
2022/08/24 05:28:59;;;;;;;10.73;6.03;;;17.30;99.90;;;-144.05;76.23;125687.94;5004301;28;20030;-87
2022/08/24 05:31:29;;;;;;;11.85;6.82;;;17.40;99.90;;;-144.05;75.97;125687.94;5024294;28;20034;-89
2022/08/24 05:33:58;;;;;;;10.88;5.88;;;17.60;99.90;;;-144.05;75.97;125687.94;5034555;28;20060;-84
2022/08/24 05:36:34;;;;;;;13.98;5.90;;;17.70;99.90;;;-144.05;75.66;125687.94;5035234;28;20038;-86
2022/08/24 05:39:09;;;;;;;8.63;4.97;;;17.90;99.90;;;-144.05;75.38;125687.94;5019016;28;20041;-89
2022/08/24 05:41:35;;;;;;;8.18;5.47;;;18.10;99.90;;;-144.05;75.44;125687.94;5023663;28;20064;-87
2022/08/24 05:44:02;;;;;;;8.85;4.88;;;18.30;99.90;;;-144.05;75.48;125687.94;5002692;28;20030;-89
2022/08/24 05:46:30;;;;;;;11.13;5.20;;;18.50;99.90;;;-144.05;75.18;125687.94;5022038;28;20053;-87
2022/08/24 05:48:58;;;;;;;9.82;5.22;;;18.70;99.90;;;-144.05;74.31;125687.94;5021195;28;20076;-89
2022/08/24 05:51:25;;;;;;;12.30;5.07;;;18.90;99.90;;;-144.05;73.61;125687.94;5013066;28;20034;-88
2022/08/24 05:53:51;;;;;;;7.63;4.60;;;19.20;99.90;;;-144.05;72.84;125687.94;5032083;28;20030;-86
2022/08/24 05:56:19;;;;;;;7.30;5.00;;;19.40;99.90;;;-144.05;71.51;125687.94;5011961;28;20101;-88
2022/08/24 05:58:47;;;;;;;10.15;4.70;;;19.70;99.90;;;-144.05;69.42;125687.94;5020591;28;20118;-88
2022/08/24 06:01:23;;;;;;;9.25;4.30;;;20.10;99.90;;;-144.05;67.56;125687.94;5018323;28;20030;-89
2022/08/24 06:03:53;;;;;;;8.80;4.55;;;20.40;99.90;;;-144.05;65.49;125687.94;5017442;28;20053;-88
2022/08/24 06:06:23;;;;;;;13.52;4.50;;;20.80;99.90;;;-144.05;63.21;125687.94;5017128;28;20026;-89
2022/08/24 06:08:54;;;;;;;10.05;4.63;;;21.10;99.90;;;-144.05;61.11;125687.94;5000858;28;20545;-89
2022/08/24 06:11:37;;;;;;;15.85;5.72;;;21.50;99.90;;;-144.05;58.60;125687.94;5002581;28;20037;-89
2022/08/24 06:14:11;;;;;;;14.10;5.07;;;21.90;99.90;;;-144.05;55.78;125687.94;5000731;28;20462;-88
2022/08/24 06:16:45;;;;;;;13.10;4.90;;;22.30;99.90;;;-144.05;52.96;125687.94;5018018;28;20041;-89
2022/08/24 06:19:16;;;;;;;7.90;3.90;;;22.60;99.90;;;-144.05;52.58;125687.94;4999681;28;20037;-88
2022/08/24 06:21:46;;;;;;;7.68;3.90;;;22.90;99.90;;;-144.05;51.98;125687.94;5017700;28;20053;-89
2022/08/24 06:24:15;;;;;;;12.80;3.92;;;23.20;99.90;;;-144.05;50.96;125687.94;5015763;28;20052;-88
2022/08/24 06:29:29;;;;;;;7.03;2.83;;;24.00;99.90;;;-144.05;46.56;125687.94;5017709;28;20072;-91
2022/08/24 06:31:55;;;;;;;11.40;3.28;;;24.30;99.90;;;-144.05;44.27;125687.94;4999723;28;20129;-89
2022/08/24 06:34:24;;;;;;;9.43;2.80;;;24.70;99.90;;;-144.05;42.48;125687.94;4999442;28;20061;-89
2022/08/24 06:36:51;;;;;;;7.05;2.15;;;25.00;99.90;;;-144.05;41.40;125687.94;4999339;28;20116;-89
2022/08/24 06:39:17;;;;;;;4.95;2.30;;;25.20;99.90;;;-144.05;40.53;125687.94;5001251;28;20030;-88
2022/08/24 06:41:43;;;;;;;7.30;2.80;;;25.40;99.90;;;-144.05;41.17;125687.94;5020137;28;20030;-88
2022/08/24 06:44:10;;;;;;;5.22;2.50;;;25.50;99.90;;;-144.05;40.83;125687.94;5000689;28;20026;-90
2022/08/24 06:46:36;;;;;;;4.65;2.30;;;25.50;99.90;;;-144.05;40.79;125687.94;5000360;28;20057;-89
2022/08/24 06:49:03;;;;;;;5.10;2.55;;;25.50;99.90;;;-144.05;41.67;125687.94;5000044;28;20378;-89
2022/08/24 06:51:31;;;;;;;7.43;2.70;;;25.50;99.90;;;-144.05;40.12;125687.94;5018343;28;20065;-88
2022/08/24 06:53:57;;;;;;;10.45;2.97;;;25.60;99.90;;;-144.05;39.17;125687.94;5003109;28;20120;-91
2022/08/24 06:56:23;;;;;;;5.32;2.20;;;25.90;99.90;;;-144.05;38.71;125687.94;5001451;28;20034;-90
2022/08/24 06:58:50;;;;;;;5.00;2.45;;;26.10;99.90;;;-144.05;38.29;125687.94;5001344;28;20029;-90
2022/08/24 07:01:27;;;;;;;4.82;2.17;;;26.30;99.90;;;-144.05;37.70;125687.94;5001381;28;20037;-89
2022/08/24 07:03:55;;;;;;;3.70;2.13;;;26.50;99.90;;;-144.05;36.86;125687.94;5002945;28;20030;-91
2022/08/24 07:06:24;;;;;;;5.95;2.20;;;26.70;99.90;;;-144.05;37.06;125687.94;5000387;28;20030;-89
2022/08/24 07:08:55;;;;;;;4.47;2.15;;;27.00;99.90;;;-144.05;37.03;125687.94;4999260;28;20034;-88
2022/08/24 07:11:22;;;;;;;3.15;1.80;;;27.10;99.90;;;-144.05;35.89;125687.94;4999445;28;20045;-90
2022/08/24 07:13:49;;;;;;;6.15;2.90;;;27.40;99.90;;;-144.05;36.80;125687.94;5000462;28;20112;-88
2022/08/24 07:16:19;;;;;;;6.57;3.20;;;27.60;99.90;;;-144.05;38.44;125687.94;5003992;28;20106;-91
2022/08/24 07:18:49;;;;;;;10.15;3.20;;;27.50;99.90;;;-144.05;38.56;125687.94;5004646;28;20409;-92
2022/08/24 07:21:18;;;;;;;9.02;3.55;;;27.70;99.90;;;-144.05;38.48;125687.94;5004547;28;20240;-92
2022/08/24 07:23:53;;;;;;;7.47;3.53;;;27.70;99.90;;;-144.05;38.75;125687.94;5004177;28;20022;-91
2022/08/24 07:26:24;;;;;;;8.52;3.53;;;27.90;99.90;;;-144.05;39.16;125687.94;5004123;28;20117;-86
2022/08/24 07:29:07;;;;;;;6.22;3.47;;;27.80;99.90;;;-144.05;39.72;125687.94;5019781;28;20034;-90
2022/08/24 07:31:38;;;;;;;9.73;3.90;;;27.50;99.90;;;-144.05;39.62;125687.94;5021080;28;20057;-90
2022/08/24 07:34:09;;;;;;;6.55;3.65;;;27.40;99.90;;;-144.05;39.91;125687.94;5002595;28;20450;-88
2022/08/24 07:36:39;;;;;;;7.30;3.55;;;27.40;99.90;;;-144.05;39.81;125687.94;5020833;28;20097;-88
2022/08/24 07:39:06;;;;;;;9.27;3.47;;;27.50;99.90;;;-144.05;38.78;125687.94;5020814;28;20025;-89
2022/08/24 07:41:41;;;;;;;9.73;3.60;;;27.60;99.90;;;-144.05;38.54;125687.94;5003632;28;20040;-88
2022/08/24 07:44:08;;;;;;;9.90;3.28;;;27.80;99.90;;;-144.05;38.74;125687.94;5014537;28;20028;-87
2022/08/24 07:46:35;;;;;;;7.10;3.85;;;27.90;99.90;;;-144.05;38.48;125687.94;5015878;28;20037;-88
2022/08/24 07:49:01;;;;;;;7.78;3.42;;;28.10;99.90;;;-144.05;38.63;125687.94;5004507;28;20509;-89
2022/08/24 07:51:27;;;;;;;5.32;3.13;;;28.20;99.90;;;-144.05;38.56;125687.94;5002916;28;20025;-89
2022/08/24 07:53:57;;;;;;;7.07;3.45;;;28.40;99.90;;;-144.05;37.47;125687.94;5006271;28;20474;-89
2022/08/24 07:56:23;;;;;;;5.03;3.00;;;28.60;99.90;;;-144.05;36.93;125687.94;5005308;28;20117;-88
2022/08/24 07:58:49;;;;;;;6.57;2.92;;;29.00;99.90;;;-144.05;35.72;125687.94;5004637;28;20076;-90
2022/08/24 08:01:16;;;;;;;6.47;3.20;;;29.10;99.90;;;-144.05;36.32;125687.94;5003595;28;20041;-88
2022/08/24 08:03:43;;;;;;;10.23;3.30;;;29.40;99.90;;;-144.05;35.09;125687.94;5004437;28;20040;-88
2022/08/24 08:06:10;;;;;;;7.80;2.67;;;29.60;99.90;;;-144.05;34.14;125687.94;5002760;28;20030;-90
2022/08/24 08:08:40;;;;;;;7.00;2.97;;;29.90;97.70;;;-144.05;33.86;125687.94;5003234;28;20026;-90
2022/08/24 08:11:13;;;;;;;4.97;2.78;;;30.00;97.40;;;-144.05;33.18;125687.94;5004594;28;20041;-91
2022/08/24 08:13:39;;;;;;;5.60;2.88;;;30.20;95.20;;;-144.05;33.86;125687.94;5002697;28;20025;-90
2022/08/24 08:16:06;;;;;;;5.30;2.72;;;30.30;96.80;;;-144.05;33.06;125687.94;5000134;28;20469;-91
2022/08/24 08:18:33;;;;;;;8.07;3.45;;;30.50;94.30;;;-144.05;32.45;125687.94;5001688;28;20452;-89
2022/08/24 08:21:02;;;;;;;6.88;2.40;;;30.50;94.10;;;-144.05;32.76;125687.94;5004315;28;20080;-88
2022/08/24 08:26:19;;;;;;;5.55;2.78;;;30.70;93.20;;;-144.05;32.08;125687.94;5018958;28;20033;-89
2022/08/24 08:28:45;;;;;;;3.80;2.50;;;30.60;91.30;;;-144.05;32.07;125687.94;5019691;28;20539;-91
2022/08/24 08:31:12;;;;;;;6.10;2.90;;;30.70;91.50;;;-144.05;31.29;125687.94;5000498;28;20033;-87
2022/08/24 08:33:39;;;;;;;5.65;2.45;;;30.80;90.10;;;-144.05;30.96;125687.94;5016989;28;20030;-90
2022/08/24 08:36:16;;;;;;;5.90;2.50;;;31.00;88.80;;;-144.05;30.48;125687.94;5001459;28;20104;-91
2022/08/24 08:38:42;;;;;;;6.20;3.00;;;31.30;86.00;;;-144.05;30.91;125687.94;5001689;28;20030;-92
2022/08/24 08:41:53;;;;;;;6.82;2.63;;;31.40;87.80;;;-144.05;29.69;125687.94;5019601;28;20032;-90
2022/08/24 08:44:55;;;;;;;4.93;2.45;;;31.30;81.90;;;-144.05;30.17;125687.94;5019011;28;20033;-91
2022/08/24 08:48:09;;;;;;;4.75;2.22;;;31.40;83.30;;;-144.05;29.69;125687.94;5000994;28;20030;-89
2022/08/24 08:51:30;;;;;;;6.40;2.20;;;31.60;81.40;;;-144.05;29.05;125687.94;4987148;28;20137;-89
2022/08/24 08:54:31;;;;;;;5.25;2.60;;;31.60;77.30;;;-144.05;28.93;125687.94;5000542;28;20034;-90
2022/08/24 08:57:54;;;;;;;5.53;2.40;;;31.50;75.80;;;-144.05;29.30;125687.94;4998463;28;20053;-89
2022/08/24 09:00:50;;;;;;;7.13;2.30;;;31.70;78.90;;;-144.05;29.41;125687.94;4997704;28;20037;-89
2022/08/24 09:03:39;;;;;;;12.52;2.85;;;31.90;78.10;;;-144.05;28.44;125687.94;4997866;28;20623;-91
2022/08/24 09:06:14;;;;;;;6.60;2.50;;;32.00;72.50;;;-144.05;28.28;125687.94;4974616;28;20082;-91
2022/08/24 09:09:27;;;;;;;8.75;2.92;;;32.00;73.20;;;-144.05;28.21;125687.94;4996800;28;20052;-87
2022/08/24 09:12:18;;;;;;;7.13;2.63;;;32.30;72.10;;;-144.05;27.94;125687.94;5001114;28;20066;-89
2022/08/24 09:15:02;;;;;;;10.80;2.70;;;32.50;70.70;;;-144.05;28.52;125687.94;5000329;28;20472;-89
2022/08/24 09:17:46;;;;;;;7.70;2.75;;;32.30;71.30;;;-144.05;28.21;125687.94;5003222;28;20030;-92
2022/08/24 09:20:28;;;;;;;7.53;2.90;;;32.20;69.50;;;-144.05;28.69;125687.94;5003885;28;20137;-90
2022/08/24 09:23:30;;;;;;;5.68;2.38;;;32.30;72.20;;;-144.05;28.47;125687.94;5004584;28;20113;-88
2022/08/24 09:27:02;;;;;;;5.18;2.45;;;32.40;70.80;;;-144.05;28.10;125687.94;5004567;28;20033;-88
2022/08/24 09:30:14;;;;;;;8.93;2.35;;;32.70;68.70;;;-144.05;27.79;125687.94;4988851;28;20049;-88
2022/08/24 09:33:15;;;;;;;5.40;2.25;;;32.80;68.40;;;-144.05;27.58;125687.94;5006745;28;20032;-87
2022/08/24 09:35:50;;;;;;;4.78;2.55;;;32.70;66.50;;;-144.05;28.94;125687.94;5006187;28;20065;-88
2022/08/24 09:38:57;;;;;;;7.47;2.22;;;33.00;72.50;;;-144.05;27.86;125687.94;5004519;28;20464;-87
2022/08/24 09:42:34;;;;;;;8.68;2.90;;;32.80;66.40;;;-144.05;28.55;125687.94;5004969;28;20088;-89
2022/08/24 09:45:27;;;;;;;10.55;3.05;;;32.70;66.70;;;-144.05;28.51;125687.94;5002661;28;20135;-91
2022/08/24 09:48:11;;;;;;;10.32;3.17;;;32.80;68.90;;;-144.05;28.24;125687.94;5002993;28;20030;-87
2022/08/24 09:51:42;;;;;;;7.38;2.25;;;32.60;66.80;;;-144.05;28.32;125687.94;5009927;28;20029;-87
2022/08/24 09:55:07;;;;;;;5.43;2.38;;;32.80;68.00;;;-144.05;28.36;125687.94;5007786;28;20025;-89
2022/08/24 09:58:14;;;;;;;5.18;2.47;;;32.80;66.80;;;-144.05;29.09;125687.94;5001519;28;20492;-87
2022/08/24 10:01:51;;;;;;;4.85;2.08;;;33.00;66.90;;;-144.05;27.95;125687.94;5001469;28;20089;-89
2022/08/24 10:05:05;;;;;;;10.30;2.53;;;33.10;66.40;;;-144.05;28.20;125687.94;5000476;28;20041;-87
2022/08/24 10:08:27;;;;;;;6.50;2.03;;;33.30;66.70;;;-144.05;28.18;125687.94;5001803;28;20041;-89
2022/08/24 10:11:29;;;;;;;4.75;2.10;;;33.50;67.50;;;-144.05;27.41;125687.94;5000786;28;20037;-89
2022/08/24 10:14:51;;;;;;;4.97;2.50;;;33.70;63.80;;;-144.05;27.34;125687.94;5001888;28;20042;-87
2022/08/24 10:17:38;;;;;;;7.80;2.30;;;33.80;64.60;;;-144.05;27.72;125687.94;5002292;28;20026;-89
2022/08/24 10:20:42;;;;;;;5.38;2.10;;;33.70;64.00;;;-144.05;27.39;125687.94;5002570;28;20033;-92
2022/08/24 10:23:38;;;;;;;3.63;1.88;;;33.70;64.00;;;-144.05;27.29;125687.94;5022539;28;20044;-88
2022/08/24 10:26:44;;;;;;;6.05;1.95;;;33.60;63.30;;;-144.05;28.02;125687.94;5021973;28;20030;-91
2022/08/24 10:30:20;;;;;;;6.90;2.15;;;33.70;65.00;;;-144.05;27.04;125687.94;5004411;28;20030;-89
2022/08/24 10:33:16;;;;;;;6.75;2.00;;;33.80;61.90;;;-144.05;27.32;125687.94;5006869;28;20030;-90
2022/08/24 10:36:35;;;;;;;5.22;2.08;;;33.90;60.90;;;-144.05;28.12;125687.94;5021197;28;20066;-89
2022/08/24 10:39:56;;;;;;;5.90;1.77;;;33.60;63.20;;;-144.05;27.92;125687.94;5012769;28;20049;-90